Главная страница
METAR-TAF:

METAR-TAF

Аэропорты :

Рабат, Марокко

широта: 34-03N, долгота: 006-46W, высота над уровнем моря: 84 м

Текущие метеонаблюдения

Эта сводка был подготовлена 15 минут назад, в 13:00 UTC
Ветер 14 Узел от западный
Температура 22°C
Влажность 69%
Давление 1015 hPa
Видимость: 7000 м
Отдельные облака на высоте 1600 фута
Отдельные облака на высоте 2000 фута

METAR: GMME 161300Z 26014KT 7000 SCT016 SCT020 22/16 Q1015 NOSIG

Время: 14:15 (13:15 UTC)

Прогноз

Эта сводка был подготовлена 2 часа и 15 минут назад, в 11:00 UTC
Прогноз действительный с 16-го 12 UTC до 17-го 18 UTC
Ветер 14 Узел от западный
Видимость: 7000 м
Отдельные облака на высоте 1600 фута
Рассеянная облачность на высоте 2000 фута
временами
С 16-го 12 UTC до 16-го 18 UTC
дождь

TAF: GMME 161100Z 1612/1718 28014KT 7000 SCT016 BKN020 TEMPO 1612/1618 RA

Метеонаблюдения и прогнозы для более 4000 аэропортов (сводки METAR и TAF).

Имеющиеся станции представлены на карте желтыми и красными точками.

Чтобы увидеть название станции, наведите на нее мышь.

Затем щелкните, чтобы увидеть метеонаблюдения и метеопрогнозы.

Управление картой: чтобы увеличить масштаб, щелкните зеленые кнопки с черным крестиком; чтобы уменьшить масштаб, щелкните зеленую кнопку с тире; для просмотра соседних карт щелкайте зеленые стрелки.


METAR-TAF: